Seaside, OR (97138)

12:00 PM PDT on September 18, 2014 (GMT -0700)
Ocean Vista Dr | Change Station
CLOSE
Current Station
Personal Weather Station
Location: Seaside, OR
Elevation: 16 ft
Nearby Weather Stations
4.0 Earthquake: Seabeck, Washington (1 day ago)  

Elev 16 ft 45.98 °N, 123.93 °W | Updated 1 second ago

Overcast
Overcast
61.9 °F
Feels Like 61.9 °F
N
0.0
Wind Variable Wind from North
Gusts 0.0 mph

Today
High -- | Low -- °F
--% Chance of Precip.
Yesterday
High -- | Low -- °F
Precip. -- in
6:57 AM 7:20 PM
Waning Crescent, 25% visible
Pressure 29.85 in
Visibility 9.0 miles
Clouds Overcast 2100 ft
Dew Point 58 °F
Humidity 87%
Rainfall 0.00 in
Snow Depth 1 in , 0 in , 0 in
UV 2.1 out of 12
Pollen .40 out of 12
Air Quality Not available.
Flu Activity Not available.
METAR KAST 181755Z AUTO 24006KT 9SM OVC021 16/14 A2985 RMK AO2 SLP108 T01610139 10172 20139 53020

More Conditions Fewer Conditions

Pressure 29.85 in
Visibility 9.0 miles
Clouds Overcast 2100 ft
Dew Point 58 °F
Humidity 87%
Rainfall 0.00 in
Snow Depth 1 in , 0 in , 0 in
UV 2.1 out of 12
Pollen .40 out of 12
Air Quality Not available.
Flu Activity Not available.
METAR KAST 181755Z AUTO 24006KT 9SM OVC021 16/14 A2985 RMK AO2 SLP108 T01610139 10172 20139 53020

More Conditions Fewer Conditions

10-Day Weather Forecast

Almanac

Astronomy

Sep. 18, 2014 Rise Set
Actual Time 6:57 AM PDT 7:20 PM PDT
Civil Twilight 6:27 AM PDT 7:50 PM PDT
Nautical Twilight 5:52 AM PDT 8:25 PM PDT
Astronomical Twilight 5:15 AM PDT 9:02 PM PDT
Moon 1:42 AM PDT 4:26 PM PDT
Length of Visible Light 13h 22m
Length of Day
12h 23m
Tomorrow will be 3m 12s shorter.
Waning Crescent, 25% of the Moon is Illuminated
Today
Waning Crescent
Sep 24
New
Oct 1
First Quarter
Oct 8
Full
Oct 15
Last Quarter

Today's Extremes

State Highs State Lows

Community

WunderPhotos

Upload Photos

1,754,421 photos uploaded!

Nearby

Snow Depth

Station Depth Elevation
Greenpoint 1 in 3200 ft
Annie Springs 0 in 6020 ft
Clackamas Lake 0 in 3400 ft
Fish Creek 0 in 7900 ft
Diamond Lake 0 in 5315 ft

Earthquake Activity

City Distance Mag. Time & Date
Seabeck, Washington 120 miles 4.0 3:06 AM PDT
2014-09-17
Morton, Washington 76 miles 3.0 5:43 AM PDT
2014-09-16
Minimum magnitude displayed is 2.5.

Coastal Water Temperatures

Place Temperature
Astoria, OR 64.0 °F
Westport, WA 57.9 °F

Nearby Weather Stations